sensor_id;sensor_type;location;lat;lon;timestamp;P1;durP1;ratioP1;P2;durP2;ratioP2
17127;SDS011;8679;50.842;4.322;2023-04-19T00:01:30;4.57;;;2.77;;
17127;SDS011;8679;50.842;4.322;2023-04-19T00:03:56;5.93;;;4.27;;
17127;SDS011;8679;50.842;4.322;2023-04-19T00:06:22;5.13;;;3.03;;
17127;SDS011;8679;50.842;4.322;2023-04-19T00:08:49;4.97;;;2.87;;
17127;SDS011;8679;50.842;4.322;2023-04-19T00:11:15;5.27;;;3.63;;
17127;SDS011;8679;50.842;4.322;2023-04-19T00:13:41;5.07;;;2.60;;
17127;SDS011;8679;50.842;4.322;2023-04-19T00:16:07;4.90;;;3.00;;
17127;SDS011;8679;50.842;4.322;2023-04-19T00:18:33;6.50;;;3.73;;
17127;SDS011;8679;50.842;4.322;2023-04-19T00:21:00;3.80;;;2.70;;
17127;SDS011;8679;50.842;4.322;2023-04-19T00:23:26;4.47;;;3.27;;
17127;SDS011;8679;50.842;4.322;2023-04-19T00:25:53;5.50;;;3.17;;
17127;SDS011;8679;50.842;4.322;2023-04-19T00:28:19;3.67;;;2.37;;
17127;SDS011;8679;50.842;4.322;2023-04-19T00:30:45;4.03;;;2.70;;
17127;SDS011;8679;50.842;4.322;2023-04-19T00:33:11;5.97;;;3.47;;
17127;SDS011;8679;50.842;4.322;2023-04-19T00:35:37;5.50;;;2.53;;
17127;SDS011;8679;50.842;4.322;2023-04-19T00:38:05;5.20;;;3.67;;
17127;SDS011;8679;50.842;4.322;2023-04-19T00:40:31;5.33;;;3.07;;
17127;SDS011;8679;50.842;4.322;2023-04-19T00:42:57;4.67;;;3.00;;
17127;SDS011;8679;50.842;4.322;2023-04-19T00:45:23;6.03;;;3.07;;
17127;SDS011;8679;50.842;4.322;2023-04-19T00:47:50;4.73;;;3.47;;
17127;SDS011;8679;50.842;4.322;2023-04-19T00:50:16;3.47;;;2.47;;
17127;SDS011;8679;50.842;4.322;2023-04-19T00:52:42;5.30;;;2.73;;
17127;SDS011;8679;50.842;4.322;2023-04-19T00:55:08;4.37;;;3.17;;
17127;SDS011;8679;50.842;4.322;2023-04-19T00:57:35;6.20;;;3.37;;
17127;SDS011;8679;50.842;4.322;2023-04-19T01:00:02;3.67;;;2.23;;
17127;SDS011;8679;50.842;4.322;2023-04-19T01:02:33;4.43;;;2.37;;
17127;SDS011;8679;50.842;4.322;2023-04-19T01:04:59;4.60;;;2.90;;
17127;SDS011;8679;50.842;4.322;2023-04-19T01:07:25;6.90;;;3.27;;
17127;SDS011;8679;50.842;4.322;2023-04-19T01:09:51;5.17;;;3.17;;
17127;SDS011;8679;50.842;4.322;2023-04-19T01:12:17;3.47;;;1.97;;
17127;SDS011;8679;50.842;4.322;2023-04-19T01:14:43;9.53;;;3.63;;
17127;SDS011;8679;50.842;4.322;2023-04-19T01:17:10;4.30;;;2.43;;
17127;SDS011;8679;50.842;4.322;2023-04-19T01:19:37;3.80;;;2.93;;
17127;SDS011;8679;50.842;4.322;2023-04-19T01:22:03;5.43;;;3.33;;
17127;SDS011;8679;50.842;4.322;2023-04-19T01:24:30;7.17;;;3.43;;
17127;SDS011;8679;50.842;4.322;2023-04-19T01:26:57;5.07;;;3.40;;
17127;SDS011;8679;50.842;4.322;2023-04-19T01:29:23;6.73;;;3.13;;
17127;SDS011;8679;50.842;4.322;2023-04-19T01:31:49;6.57;;;2.87;;
17127;SDS011;8679;50.842;4.322;2023-04-19T01:34:17;6.03;;;4.13;;
17127;SDS011;8679;50.842;4.322;2023-04-19T01:36:44;7.40;;;3.43;;
17127;SDS011;8679;50.842;4.322;2023-04-19T01:39:10;6.77;;;3.83;;
17127;SDS011;8679;50.842;4.322;2023-04-19T01:41:36;4.60;;;2.93;;
17127;SDS011;8679;50.842;4.322;2023-04-19T01:44:02;4.13;;;2.93;;
17127;SDS011;8679;50.842;4.322;2023-04-19T01:46:28;5.37;;;3.73;;
17127;SDS011;8679;50.842;4.322;2023-04-19T01:48:54;5.30;;;3.23;;
17127;SDS011;8679;50.842;4.322;2023-04-19T01:51:20;8.27;;;3.37;;
17127;SDS011;8679;50.842;4.322;2023-04-19T01:53:46;4.50;;;3.27;;
17127;SDS011;8679;50.842;4.322;2023-04-19T01:56:18;5.37;;;3.07;;
17127;SDS011;8679;50.842;4.322;2023-04-19T01:58:44;4.00;;;2.77;;
17127;SDS011;8679;50.842;4.322;2023-04-19T02:01:10;2.93;;;2.17;;
17127;SDS011;8679;50.842;4.322;2023-04-19T02:03:37;4.53;;;3.27;;
17127;SDS011;8679;50.842;4.322;2023-04-19T02:06:03;5.80;;;2.60;;
17127;SDS011;8679;50.842;4.322;2023-04-19T02:08:29;6.40;;;3.70;;
17127;SDS011;8679;50.842;4.322;2023-04-19T02:10:55;5.03;;;3.37;;
17127;SDS011;8679;50.842;4.322;2023-04-19T02:13:21;6.30;;;3.10;;
17127;SDS011;8679;50.842;4.322;2023-04-19T02:15:47;4.83;;;2.47;;
17127;SDS011;8679;50.842;4.322;2023-04-19T02:18:14;3.63;;;2.70;;
17127;SDS011;8679;50.842;4.322;2023-04-19T02:20:41;5.63;;;3.17;;
17127;SDS011;8679;50.842;4.322;2023-04-19T02:23:07;9.30;;;3.60;;
17127;SDS011;8679;50.842;4.322;2023-04-19T02:25:33;4.17;;;2.67;;
17127;SDS011;8679;50.842;4.322;2023-04-19T02:27:59;3.63;;;2.20;;
17127;SDS011;8679;50.842;4.322;2023-04-19T02:30:25;3.33;;;2.73;;
17127;SDS011;8679;50.842;4.322;2023-04-19T02:32:51;5.37;;;2.17;;
17127;SDS011;8679;50.842;4.322;2023-04-19T02:35:19;5.57;;;3.30;;
17127;SDS011;8679;50.842;4.322;2023-04-19T02:37:45;4.27;;;1.90;;
17127;SDS011;8679;50.842;4.322;2023-04-19T02:40:11;4.20;;;2.63;;
17127;SDS011;8679;50.842;4.322;2023-04-19T02:42:37;8.17;;;3.37;;
17127;SDS011;8679;50.842;4.322;2023-04-19T02:45:03;6.23;;;3.03;;
17127;SDS011;8679;50.842;4.322;2023-04-19T02:47:29;4.57;;;2.80;;
17127;SDS011;8679;50.842;4.322;2023-04-19T02:49:55;4.60;;;3.23;;
17127;SDS011;8679;50.842;4.322;2023-04-19T02:52:21;4.47;;;3.43;;
17127;SDS011;8679;50.842;4.322;2023-04-19T02:54:47;4.93;;;2.23;;
17127;SDS011;8679;50.842;4.322;2023-04-19T02:57:13;2.87;;;2.37;;
17127;SDS011;8679;50.842;4.322;2023-04-19T02:59:39;5.47;;;2.53;;
17127;SDS011;8679;50.842;4.322;2023-04-19T03:02:05;6.90;;;2.73;;
17127;SDS011;8679;50.842;4.322;2023-04-19T03:04:31;5.37;;;2.80;;
17127;SDS011;8679;50.842;4.322;2023-04-19T03:06:58;6.10;;;2.97;;
17127;SDS011;8679;50.842;4.322;2023-04-19T03:09:24;6.07;;;3.30;;
17127;SDS011;8679;50.842;4.322;2023-04-19T03:11:50;4.57;;;2.83;;
17127;SDS011;8679;50.842;4.322;2023-04-19T03:14:17;3.47;;;2.90;;
17127;SDS011;8679;50.842;4.322;2023-04-19T03:16:43;4.90;;;2.93;;
17127;SDS011;8679;50.842;4.322;2023-04-19T03:19:09;5.53;;;3.80;;
17127;SDS011;8679;50.842;4.322;2023-04-19T03:21:35;7.07;;;3.40;;
17127;SDS011;8679;50.842;4.322;2023-04-19T03:24:01;5.47;;;3.47;;
17127;SDS011;8679;50.842;4.322;2023-04-19T03:26:27;4.10;;;3.23;;
17127;SDS011;8679;50.842;4.322;2023-04-19T03:28:53;3.67;;;2.80;;
17127;SDS011;8679;50.842;4.322;2023-04-19T03:31:19;4.47;;;3.30;;
17127;SDS011;8679;50.842;4.322;2023-04-19T03:33:45;4.70;;;2.70;;
17127;SDS011;8679;50.842;4.322;2023-04-19T03:36:11;4.97;;;3.30;;
17127;SDS011;8679;50.842;4.322;2023-04-19T03:38:37;7.00;;;3.30;;
17127;SDS011;8679;50.842;4.322;2023-04-19T03:41:04;6.63;;;3.63;;
17127;SDS011;8679;50.842;4.322;2023-04-19T03:43:30;5.67;;;3.10;;
17127;SDS011;8679;50.842;4.322;2023-04-19T03:45:56;4.67;;;2.30;;
17127;SDS011;8679;50.842;4.322;2023-04-19T03:48:22;3.03;;;2.07;;
17127;SDS011;8679;50.842;4.322;2023-04-19T03:50:49;4.30;;;2.47;;
17127;SDS011;8679;50.842;4.322;2023-04-19T03:53:15;4.00;;;3.07;;
17127;SDS011;8679;50.842;4.322;2023-04-19T03:55:42;3.60;;;2.50;;
17127;SDS011;8679;50.842;4.322;2023-04-19T03:58:09;3.87;;;2.63;;
17127;SDS011;8679;50.842;4.322;2023-04-19T04:00:36;2.40;;;1.77;;
17127;SDS011;8679;50.842;4.322;2023-04-19T04:03:02;4.57;;;2.60;;
17127;SDS011;8679;50.842;4.322;2023-04-19T04:05:28;3.73;;;2.33;;
17127;SDS011;8679;50.842;4.322;2023-04-19T04:07:54;4.63;;;2.47;;
17127;SDS011;8679;50.842;4.322;2023-04-19T04:10:21;2.90;;;1.80;;
17127;SDS011;8679;50.842;4.322;2023-04-19T04:12:47;6.90;;;3.47;;
17127;SDS011;8679;50.842;4.322;2023-04-19T04:15:13;4.70;;;3.23;;
17127;SDS011;8679;50.842;4.322;2023-04-19T04:17:39;2.90;;;2.60;;
17127;SDS011;8679;50.842;4.322;2023-04-19T04:20:05;5.40;;;2.77;;
17127;SDS011;8679;50.842;4.322;2023-04-19T04:22:32;4.60;;;2.67;;
17127;SDS011;8679;50.842;4.322;2023-04-19T04:24:58;6.00;;;3.57;;
17127;SDS011;8679;50.842;4.322;2023-04-19T04:27:26;3.33;;;2.60;;
17127;SDS011;8679;50.842;4.322;2023-04-19T04:29:52;4.07;;;1.87;;
17127;SDS011;8679;50.842;4.322;2023-04-19T04:32:18;2.87;;;2.33;;
17127;SDS011;8679;50.842;4.322;2023-04-19T04:34:47;2.97;;;2.23;;
17127;SDS011;8679;50.842;4.322;2023-04-19T04:37:13;4.57;;;2.73;;
17127;SDS011;8679;50.842;4.322;2023-04-19T04:39:40;3.90;;;2.67;;
17127;SDS011;8679;50.842;4.322;2023-04-19T04:42:06;3.77;;;2.83;;
17127;SDS011;8679;50.842;4.322;2023-04-19T04:44:32;6.27;;;3.83;;
17127;SDS011;8679;50.842;4.322;2023-04-19T04:46:59;5.27;;;2.63;;
17127;SDS011;8679;50.842;4.322;2023-04-19T04:49:25;3.70;;;2.40;;
17127;SDS011;8679;50.842;4.322;2023-04-19T04:51:51;4.30;;;2.60;;
17127;SDS011;8679;50.842;4.322;2023-04-19T04:54:17;3.90;;;2.37;;
17127;SDS011;8679;50.842;4.322;2023-04-19T04:56:43;5.03;;;2.67;;
17127;SDS011;8679;50.842;4.322;2023-04-19T04:59:09;6.33;;;3.53;;
17127;SDS011;8679;50.842;4.322;2023-04-19T05:01:35;7.00;;;3.33;;
17127;SDS011;8679;50.842;4.322;2023-04-19T05:04:01;4.60;;;3.33;;
17127;SDS011;8679;50.842;4.322;2023-04-19T05:06:27;4.73;;;2.33;;
17127;SDS011;8679;50.842;4.322;2023-04-19T05:08:53;4.17;;;3.07;;
17127;SDS011;8679;50.842;4.322;2023-04-19T05:11:19;3.70;;;2.27;;
17127;SDS011;8679;50.842;4.322;2023-04-19T05:13:46;4.43;;;3.00;;
17127;SDS011;8679;50.842;4.322;2023-04-19T05:16:12;5.17;;;2.97;;
17127;SDS011;8679;50.842;4.322;2023-04-19T05:18:38;3.37;;;2.80;;
17127;SDS011;8679;50.842;4.322;2023-04-19T05:21:05;3.47;;;2.67;;
17127;SDS011;8679;50.842;4.322;2023-04-19T05:23:34;3.53;;;2.60;;
17127;SDS011;8679;50.842;4.322;2023-04-19T05:26:00;3.40;;;2.37;;
17127;SDS011;8679;50.842;4.322;2023-04-19T05:28:26;6.00;;;3.07;;
17127;SDS011;8679;50.842;4.322;2023-04-19T05:30:52;2.90;;;2.10;;
17127;SDS011;8679;50.842;4.322;2023-04-19T05:33:18;5.10;;;2.23;;
17127;SDS011;8679;50.842;4.322;2023-04-19T05:35:44;3.53;;;3.03;;
17127;SDS011;8679;50.842;4.322;2023-04-19T05:38:10;6.07;;;2.80;;
17127;SDS011;8679;50.842;4.322;2023-04-19T05:40:36;6.27;;;3.27;;
17127;SDS011;8679;50.842;4.322;2023-04-19T05:43:04;4.73;;;2.27;;
17127;SDS011;8679;50.842;4.322;2023-04-19T05:45:30;7.73;;;3.40;;
17127;SDS011;8679;50.842;4.322;2023-04-19T05:47:56;4.50;;;2.80;;
17127;SDS011;8679;50.842;4.322;2023-04-19T05:50:22;3.83;;;2.90;;
17127;SDS011;8679;50.842;4.322;2023-04-19T05:52:48;5.17;;;3.43;;
17127;SDS011;8679;50.842;4.322;2023-04-19T05:55:14;5.77;;;3.63;;
17127;SDS011;8679;50.842;4.322;2023-04-19T05:57:40;7.03;;;3.67;;
17127;SDS011;8679;50.842;4.322;2023-04-19T06:00:06;2.93;;;2.27;;
17127;SDS011;8679;50.842;4.322;2023-04-19T06:02:34;4.87;;;2.63;;
17127;SDS011;8679;50.842;4.322;2023-04-19T06:05:00;4.07;;;2.60;;
17127;SDS011;8679;50.842;4.322;2023-04-19T06:07:28;3.17;;;2.37;;
17127;SDS011;8679;50.842;4.322;2023-04-19T06:09:55;5.37;;;3.80;;
17127;SDS011;8679;50.842;4.322;2023-04-19T06:12:21;4.87;;;3.27;;
17127;SDS011;8679;50.842;4.322;2023-04-19T06:14:47;7.40;;;2.73;;
17127;SDS011;8679;50.842;4.322;2023-04-19T06:17:13;7.07;;;3.53;;
17127;SDS011;8679;50.842;4.322;2023-04-19T06:19:41;3.80;;;3.07;;
17127;SDS011;8679;50.842;4.322;2023-04-19T06:22:07;3.93;;;3.13;;
17127;SDS011;8679;50.842;4.322;2023-04-19T06:24:33;4.93;;;3.40;;
17127;SDS011;8679;50.842;4.322;2023-04-19T06:26:59;3.53;;;2.17;;
17127;SDS011;8679;50.842;4.322;2023-04-19T06:29:26;8.33;;;3.93;;
17127;SDS011;8679;50.842;4.322;2023-04-19T06:31:52;5.37;;;3.70;;
17127;SDS011;8679;50.842;4.322;2023-04-19T06:34:18;3.40;;;2.67;;
17127;SDS011;8679;50.842;4.322;2023-04-19T06:36:44;4.30;;;2.93;;
17127;SDS011;8679;50.842;4.322;2023-04-19T06:39:10;6.10;;;2.93;;
17127;SDS011;8679;50.842;4.322;2023-04-19T06:41:36;5.10;;;2.93;;
17127;SDS011;8679;50.842;4.322;2023-04-19T06:44:02;3.67;;;2.80;;
17127;SDS011;8679;50.842;4.322;2023-04-19T06:46:28;6.10;;;3.83;;
17127;SDS011;8679;50.842;4.322;2023-04-19T06:48:54;4.73;;;3.47;;
17127;SDS011;8679;50.842;4.322;2023-04-19T06:51:20;3.40;;;2.73;;
17127;SDS011;8679;50.842;4.322;2023-04-19T06:53:48;4.97;;;2.87;;
17127;SDS011;8679;50.842;4.322;2023-04-19T06:56:14;5.10;;;2.73;;
17127;SDS011;8679;50.842;4.322;2023-04-19T06:58:40;3.37;;;1.93;;
17127;SDS011;8679;50.842;4.322;2023-04-19T07:01:06;12.00;;;4.70;;
17127;SDS011;8679;50.842;4.322;2023-04-19T07:03:32;4.23;;;2.93;;
17127;SDS011;8679;50.842;4.322;2023-04-19T07:05:58;4.70;;;2.83;;
17127;SDS011;8679;50.842;4.322;2023-04-19T07:08:25;5.17;;;2.93;;
17127;SDS011;8679;50.842;4.322;2023-04-19T07:10:51;3.27;;;2.23;;
17127;SDS011;8679;50.842;4.322;2023-04-19T07:13:18;4.90;;;2.53;;
17127;SDS011;8679;50.842;4.322;2023-04-19T07:15:44;5.23;;;2.70;;
17127;SDS011;8679;50.842;4.322;2023-04-19T07:18:10;5.27;;;2.90;;
17127;SDS011;8679;50.842;4.322;2023-04-19T07:20:38;3.60;;;2.70;;
17127;SDS011;8679;50.842;4.322;2023-04-19T07:23:08;4.17;;;2.67;;
17127;SDS011;8679;50.842;4.322;2023-04-19T07:25:35;5.57;;;2.73;;
17127;SDS011;8679;50.842;4.322;2023-04-19T07:28:04;5.70;;;2.97;;
17127;SDS011;8679;50.842;4.322;2023-04-19T07:30:30;3.67;;;2.17;;
17127;SDS011;8679;50.842;4.322;2023-04-19T07:32:56;3.30;;;2.20;;
17127;SDS011;8679;50.842;4.322;2023-04-19T07:35:22;5.43;;;2.53;;
17127;SDS011;8679;50.842;4.322;2023-04-19T07:37:48;3.27;;;2.17;;
17127;SDS011;8679;50.842;4.322;2023-04-19T07:40:14;2.67;;;2.10;;
17127;SDS011;8679;50.842;4.322;2023-04-19T07:42:41;4.23;;;2.70;;
17127;SDS011;8679;50.842;4.322;2023-04-19T07:45:08;4.00;;;2.30;;
17127;SDS011;8679;50.842;4.322;2023-04-19T07:47:34;3.80;;;2.47;;
17127;SDS011;8679;50.842;4.322;2023-04-19T07:50:00;4.03;;;2.57;;
17127;SDS011;8679;50.842;4.322;2023-04-19T07:52:28;5.67;;;2.50;;
17127;SDS011;8679;50.842;4.322;2023-04-19T07:54:54;5.23;;;2.97;;
17127;SDS011;8679;50.842;4.322;2023-04-19T07:57:21;5.03;;;2.80;;
17127;SDS011;8679;50.842;4.322;2023-04-19T07:59:47;3.83;;;2.40;;
17127;SDS011;8679;50.842;4.322;2023-04-19T08:02:13;4.50;;;2.77;;
17127;SDS011;8679;50.842;4.322;2023-04-19T08:04:42;3.70;;;2.57;;
17127;SDS011;8679;50.842;4.322;2023-04-19T08:07:12;4.23;;;2.50;;
17127;SDS011;8679;50.842;4.322;2023-04-19T08:09:38;3.07;;;2.33;;
17127;SDS011;8679;50.842;4.322;2023-04-19T08:12:04;4.30;;;2.37;;
17127;SDS011;8679;50.842;4.322;2023-04-19T08:14:30;9.50;;;3.33;;
17127;SDS011;8679;50.842;4.322;2023-04-19T08:16:56;3.77;;;2.53;;
17127;SDS011;8679;50.842;4.322;2023-04-19T08:19:22;4.03;;;1.97;;
17127;SDS011;8679;50.842;4.322;2023-04-19T08:21:48;5.20;;;1.93;;
17127;SDS011;8679;50.842;4.322;2023-04-19T08:24:14;3.00;;;2.10;;
17127;SDS011;8679;50.842;4.322;2023-04-19T08:26:40;4.50;;;2.33;;
17127;SDS011;8679;50.842;4.322;2023-04-19T08:29:06;3.53;;;2.40;;
17127;SDS011;8679;50.842;4.322;2023-04-19T08:31:32;4.53;;;2.50;;
17127;SDS011;8679;50.842;4.322;2023-04-19T08:33:59;4.20;;;2.00;;
17127;SDS011;8679;50.842;4.322;2023-04-19T08:36:26;3.90;;;2.90;;
17127;SDS011;8679;50.842;4.322;2023-04-19T08:38:53;3.33;;;2.63;;
17127;SDS011;8679;50.842;4.322;2023-04-19T08:41:19;3.23;;;2.13;;
17127;SDS011;8679;50.842;4.322;2023-04-19T08:43:47;3.67;;;2.33;;
17127;SDS011;8679;50.842;4.322;2023-04-19T08:46:15;4.82;;;2.63;;
17127;SDS011;8679;50.842;4.322;2023-04-19T08:48:42;3.93;;;2.03;;
17127;SDS011;8679;50.842;4.322;2023-04-19T08:51:08;4.07;;;2.30;;
17127;SDS011;8679;50.842;4.322;2023-04-19T08:53:34;2.35;;;2.05;;
17127;SDS011;8679;50.842;4.322;2023-04-19T08:56:01;3.17;;;1.80;;
17127;SDS011;8679;50.842;4.322;2023-04-19T08:58:27;4.05;;;2.17;;
17127;SDS011;8679;50.842;4.322;2023-04-19T09:00:57;3.75;;;2.08;;
17127;SDS011;8679;50.842;4.322;2023-04-19T09:03:23;3.30;;;1.90;;
17127;SDS011;8679;50.842;4.322;2023-04-19T09:05:49;4.78;;;2.42;;
17127;SDS011;8679;50.842;4.322;2023-04-19T09:08:28;3.63;;;2.08;;
17127;SDS011;8679;50.842;4.322;2023-04-19T09:10:58;2.78;;;1.85;;
17127;SDS011;8679;50.842;4.322;2023-04-19T09:13:25;5.13;;;2.45;;
17127;SDS011;8679;50.842;4.322;2023-04-19T09:15:51;1.80;;;1.48;;
17127;SDS011;8679;50.842;4.322;2023-04-19T09:18:18;3.15;;;1.88;;
17127;SDS011;8679;50.842;4.322;2023-04-19T09:20:45;3.70;;;2.15;;
17127;SDS011;8679;50.842;4.322;2023-04-19T09:23:12;2.30;;;1.75;;
17127;SDS011;8679;50.842;4.322;2023-04-19T09:25:39;3.30;;;2.42;;
17127;SDS011;8679;50.842;4.322;2023-04-19T09:28:08;3.25;;;1.90;;
17127;SDS011;8679;50.842;4.322;2023-04-19T09:30:36;3.20;;;1.77;;
17127;SDS011;8679;50.842;4.322;2023-04-19T09:33:02;4.28;;;2.60;;
17127;SDS011;8679;50.842;4.322;2023-04-19T09:38:06;5.63;;;2.10;;
17127;SDS011;8679;50.842;4.322;2023-04-19T09:40:32;3.45;;;2.25;;
17127;SDS011;8679;50.842;4.322;2023-04-19T09:42:59;2.33;;;1.70;;
17127;SDS011;8679;50.842;4.322;2023-04-19T09:48:07;2.72;;;2.10;;
17127;SDS011;8679;50.842;4.322;2023-04-19T09:50:34;2.38;;;2.17;;
17127;SDS011;8679;50.842;4.322;2023-04-19T09:53:01;2.85;;;1.67;;
17127;SDS011;8679;50.842;4.322;2023-04-19T09:55:27;3.30;;;2.00;;
17127;SDS011;8679;50.842;4.322;2023-04-19T09:57:53;2.72;;;1.77;;
17127;SDS011;8679;50.842;4.322;2023-04-19T10:00:20;2.17;;;1.65;;
17127;SDS011;8679;50.842;4.322;2023-04-19T10:02:46;2.40;;;2.20;;
17127;SDS011;8679;50.842;4.322;2023-04-19T10:05:20;3.40;;;2.08;;
17127;SDS011;8679;50.842;4.322;2023-04-19T10:07:46;2.92;;;1.67;;
17127;SDS011;8679;50.842;4.322;2023-04-19T10:10:14;2.45;;;1.50;;
17127;SDS011;8679;50.842;4.322;2023-04-19T10:12:41;2.42;;;1.60;;
17127;SDS011;8679;50.842;4.322;2023-04-19T10:15:10;2.70;;;1.50;;
17127;SDS011;8679;50.842;4.322;2023-04-19T10:17:36;4.03;;;1.92;;
17127;SDS011;8679;50.842;4.322;2023-04-19T10:20:04;3.85;;;2.05;;
17127;SDS011;8679;50.842;4.322;2023-04-19T10:22:32;1.95;;;1.35;;
17127;SDS011;8679;50.842;4.322;2023-04-19T10:25:08;1.63;;;1.50;;
17127;SDS011;8679;50.842;4.322;2023-04-19T10:27:35;2.83;;;1.55;;
17127;SDS011;8679;50.842;4.322;2023-04-19T10:30:01;3.70;;;1.88;;
17127;SDS011;8679;50.842;4.322;2023-04-19T10:32:42;2.90;;;1.48;;
17127;SDS011;8679;50.842;4.322;2023-04-19T10:35:08;3.05;;;1.65;;
17127;SDS011;8679;50.842;4.322;2023-04-19T10:37:38;2.00;;;1.30;;
17127;SDS011;8679;50.842;4.322;2023-04-19T10:40:06;3.35;;;1.67;;
17127;SDS011;8679;50.842;4.322;2023-04-19T10:45:31;2.75;;;1.40;;
17127;SDS011;8679;50.842;4.322;2023-04-19T10:47:57;1.63;;;1.20;;
17127;SDS011;8679;50.842;4.322;2023-04-19T10:50:23;2.38;;;1.70;;
17127;SDS011;8679;50.842;4.322;2023-04-19T10:52:50;1.77;;;1.35;;
17127;SDS011;8679;50.842;4.322;2023-04-19T10:55:17;1.75;;;1.13;;
17127;SDS011;8679;50.842;4.322;2023-04-19T10:58:00;2.97;;;1.75;;
17127;SDS011;8679;50.842;4.322;2023-04-19T11:00:27;3.45;;;2.10;;
17127;SDS011;8679;50.842;4.322;2023-04-19T11:02:55;2.50;;;1.65;;
17127;SDS011;8679;50.842;4.322;2023-04-19T11:05:21;3.25;;;1.60;;
17127;SDS011;8679;50.842;4.322;2023-04-19T11:07:47;2.65;;;1.45;;
17127;SDS011;8679;50.842;4.322;2023-04-19T11:10:14;2.17;;;1.30;;
17127;SDS011;8679;50.842;4.322;2023-04-19T11:12:52;2.05;;;1.30;;
17127;SDS011;8679;50.842;4.322;2023-04-19T11:15:20;2.08;;;1.17;;
17127;SDS011;8679;50.842;4.322;2023-04-19T11:17:49;1.42;;;0.93;;
17127;SDS011;8679;50.842;4.322;2023-04-19T11:20:16;4.78;;;1.92;;
17127;SDS011;8679;50.842;4.322;2023-04-19T11:22:45;1.65;;;1.25;;
17127;SDS011;8679;50.842;4.322;2023-04-19T11:25:13;2.55;;;1.25;;
17127;SDS011;8679;50.842;4.322;2023-04-19T11:27:40;1.33;;;0.98;;
17127;SDS011;8679;50.842;4.322;2023-04-19T11:30:09;3.25;;;1.00;;
17127;SDS011;8679;50.842;4.322;2023-04-19T11:32:35;3.17;;;1.50;;
17127;SDS011;8679;50.842;4.322;2023-04-19T11:35:06;2.55;;;1.90;;
17127;SDS011;8679;50.842;4.322;2023-04-19T11:37:36;2.20;;;1.35;;
17127;SDS011;8679;50.842;4.322;2023-04-19T11:40:03;2.08;;;1.50;;
17127;SDS011;8679;50.842;4.322;2023-04-19T11:42:30;1.85;;;1.40;;
17127;SDS011;8679;50.842;4.322;2023-04-19T11:44:58;2.53;;;1.30;;
17127;SDS011;8679;50.842;4.322;2023-04-19T11:47:27;2.10;;;1.52;;
17127;SDS011;8679;50.842;4.322;2023-04-19T11:49:56;1.42;;;0.93;;
17127;SDS011;8679;50.842;4.322;2023-04-19T11:52:23;2.05;;;1.75;;
17127;SDS011;8679;50.842;4.322;2023-04-19T11:54:50;1.95;;;1.38;;
17127;SDS011;8679;50.842;4.322;2023-04-19T11:57:25;2.08;;;1.50;;
17127;SDS011;8679;50.842;4.322;2023-04-19T12:00:01;2.45;;;1.60;;
17127;SDS011;8679;50.842;4.322;2023-04-19T12:02:30;3.53;;;1.95;;
17127;SDS011;8679;50.842;4.322;2023-04-19T12:05:11;2.47;;;1.30;;
17127;SDS011;8679;50.842;4.322;2023-04-19T12:10:22;1.95;;;1.30;;
17127;SDS011;8679;50.842;4.322;2023-04-19T12:12:48;3.25;;;1.55;;
17127;SDS011;8679;50.842;4.322;2023-04-19T12:15:15;2.88;;;1.77;;
17127;SDS011;8679;50.842;4.322;2023-04-19T12:20:32;1.65;;;1.52;;
17127;SDS011;8679;50.842;4.322;2023-04-19T12:22:58;2.53;;;1.52;;
17127;SDS011;8679;50.842;4.322;2023-04-19T12:25:30;1.88;;;1.48;;
17127;SDS011;8679;50.842;4.322;2023-04-19T12:27:57;2.67;;;1.50;;
17127;SDS011;8679;50.842;4.322;2023-04-19T12:30:24;1.88;;;1.10;;
17127;SDS011;8679;50.842;4.322;2023-04-19T12:32:51;2.63;;;1.33;;
17127;SDS011;8679;50.842;4.322;2023-04-19T12:35:19;1.75;;;1.23;;
17127;SDS011;8679;50.842;4.322;2023-04-19T12:37:46;2.70;;;1.77;;
17127;SDS011;8679;50.842;4.322;2023-04-19T12:40:12;1.25;;;0.90;;
17127;SDS011;8679;50.842;4.322;2023-04-19T12:42:38;2.08;;;1.10;;
17127;SDS011;8679;50.842;4.322;2023-04-19T12:45:04;1.90;;;1.58;;
17127;SDS011;8679;50.842;4.322;2023-04-19T12:47:30;3.00;;;1.40;;
17127;SDS011;8679;50.842;4.322;2023-04-19T12:49:57;1.65;;;1.25;;
17127;SDS011;8679;50.842;4.322;2023-04-19T12:52:23;2.53;;;1.40;;
17127;SDS011;8679;50.842;4.322;2023-04-19T12:54:49;1.98;;;1.45;;
17127;SDS011;8679;50.842;4.322;2023-04-19T12:57:15;2.20;;;1.75;;
17127;SDS011;8679;50.842;4.322;2023-04-19T12:59:41;1.40;;;1.13;;
17127;SDS011;8679;50.842;4.322;2023-04-19T13:02:08;2.42;;;1.20;;
17127;SDS011;8679;50.842;4.322;2023-04-19T13:04:34;2.22;;;1.15;;
17127;SDS011;8679;50.842;4.322;2023-04-19T13:07:01;2.17;;;1.13;;
17127;SDS011;8679;50.842;4.322;2023-04-19T13:09:27;2.35;;;1.30;;
17127;SDS011;8679;50.842;4.322;2023-04-19T13:11:53;2.38;;;1.13;;
17127;SDS011;8679;50.842;4.322;2023-04-19T13:14:20;1.83;;;1.30;;
17127;SDS011;8679;50.842;4.322;2023-04-19T13:16:46;1.40;;;1.13;;
17127;SDS011;8679;50.842;4.322;2023-04-19T13:19:12;1.60;;;0.95;;
17127;SDS011;8679;50.842;4.322;2023-04-19T13:21:38;1.20;;;0.85;;
17127;SDS011;8679;50.842;4.322;2023-04-19T13:24:04;1.17;;;0.95;;
17127;SDS011;8679;50.842;4.322;2023-04-19T13:26:30;2.33;;;1.20;;
17127;SDS011;8679;50.842;4.322;2023-04-19T13:28:58;1.55;;;0.80;;
17127;SDS011;8679;50.842;4.322;2023-04-19T13:31:24;2.30;;;1.08;;
17127;SDS011;8679;50.842;4.322;2023-04-19T13:33:51;1.25;;;0.80;;
17127;SDS011;8679;50.842;4.322;2023-04-19T13:36:18;2.53;;;1.20;;
17127;SDS011;8679;50.842;4.322;2023-04-19T13:38:44;2.33;;;1.00;;
17127;SDS011;8679;50.842;4.322;2023-04-19T13:41:10;1.13;;;0.82;;
17127;SDS011;8679;50.842;4.322;2023-04-19T13:43:36;1.00;;;0.85;;
17127;SDS011;8679;50.842;4.322;2023-04-19T13:46:02;0.68;;;0.68;;
17127;SDS011;8679;50.842;4.322;2023-04-19T13:48:28;0.82;;;0.60;;
17127;SDS011;8679;50.842;4.322;2023-04-19T13:50:55;1.40;;;0.98;;
17127;SDS011;8679;50.842;4.322;2023-04-19T13:53:21;1.98;;;0.80;;
17127;SDS011;8679;50.842;4.322;2023-04-19T13:55:48;2.03;;;1.48;;
17127;SDS011;8679;50.842;4.322;2023-04-19T13:58:14;1.00;;;0.80;;
17127;SDS011;8679;50.842;4.322;2023-04-19T14:00:40;1.45;;;1.00;;
17127;SDS011;8679;50.842;4.322;2023-04-19T14:03:06;1.52;;;0.88;;
17127;SDS011;8679;50.842;4.322;2023-04-19T14:05:32;1.80;;;0.90;;
17127;SDS011;8679;50.842;4.322;2023-04-19T14:07:58;2.40;;;0.88;;
17127;SDS011;8679;50.842;4.322;2023-04-19T14:10:24;1.27;;;0.70;;
17127;SDS011;8679;50.842;4.322;2023-04-19T14:12:50;1.35;;;0.80;;
17127;SDS011;8679;50.842;4.322;2023-04-19T14:15:17;1.73;;;1.05;;
17127;SDS011;8679;50.842;4.322;2023-04-19T14:17:44;1.77;;;0.73;;
17127;SDS011;8679;50.842;4.322;2023-04-19T14:20:10;1.20;;;0.77;;
17127;SDS011;8679;50.842;4.322;2023-04-19T14:22:37;0.82;;;0.60;;
17127;SDS011;8679;50.842;4.322;2023-04-19T14:25:03;0.95;;;0.75;;
17127;SDS011;8679;50.842;4.322;2023-04-19T14:27:29;0.50;;;0.50;;
17127;SDS011;8679;50.842;4.322;2023-04-19T14:29:55;0.40;;;0.40;;
17127;SDS011;8679;50.842;4.322;2023-04-19T14:32:21;1.13;;;1.02;;
17127;SDS011;8679;50.842;4.322;2023-04-19T14:34:47;0.60;;;0.60;;
17127;SDS011;8679;50.842;4.322;2023-04-19T14:37:13;2.10;;;0.85;;
17127;SDS011;8679;50.842;4.322;2023-04-19T14:39:40;1.02;;;0.43;;
17127;SDS011;8679;50.842;4.322;2023-04-19T14:42:06;1.50;;;0.73;;
17127;SDS011;8679;50.842;4.322;2023-04-19T14:44:32;0.43;;;0.40;;
17127;SDS011;8679;50.842;4.322;2023-04-19T14:46:58;0.77;;;0.50;;
17127;SDS011;8679;50.842;4.322;2023-04-19T14:49:24;0.88;;;0.50;;
17127;SDS011;8679;50.842;4.322;2023-04-19T14:51:51;0.47;;;0.43;;
17127;SDS011;8679;50.842;4.322;2023-04-19T14:54:17;1.23;;;0.77;;
17127;SDS011;8679;50.842;4.322;2023-04-19T14:56:43;0.47;;;0.43;;
17127;SDS011;8679;50.842;4.322;2023-04-19T14:59:09;1.05;;;0.68;;
17127;SDS011;8679;50.842;4.322;2023-04-19T15:01:35;0.88;;;0.60;;
17127;SDS011;8679;50.842;4.322;2023-04-19T15:04:01;0.63;;;0.50;;
17127;SDS011;8679;50.842;4.322;2023-04-19T15:06:27;1.35;;;0.77;;
17127;SDS011;8679;50.842;4.322;2023-04-19T15:08:53;0.50;;;0.50;;
17127;SDS011;8679;50.842;4.322;2023-04-19T15:11:19;1.17;;;0.65;;